Time;durP1;ratioP1;P1;durP2;ratioP2;P2;SDS_P1;SDS_P2;PMS_P1;PMS_P2;Temp;Humidity;BMP_temperature;BMP_pressure;BME280_temperature;BME280_humidity;BME280_pressure;Samples;Min_cycle;Max_cycle;Signal;HPM_P1;HPM_P2
2023/03/20 00:00:16;;;;;;;5.80;2.90;;;10.90;31.80;;;;;;5062622;28;20454;-60
2023/03/20 00:02:45;;;;;;;5.57;3.10;;;10.90;32.00;;;;;;5057393;28;21014;-58
2023/03/20 00:05:18;;;;;;;7.00;2.97;;;10.90;31.90;;;;;;5060866;28;20505;-59
2023/03/20 00:07:46;;;;;;;6.00;2.93;;;10.90;31.90;;;;;;5063762;28;20973;-59
2023/03/20 00:10:13;;;;;;;5.93;2.80;;;10.80;31.90;;;;;;5055188;28;20539;-60
2023/03/20 00:12:40;;;;;;;4.93;2.87;;;10.80;32.20;;;;;;5058872;28;20462;-60
2023/03/20 00:15:23;;;;;;;6.20;2.70;;;10.70;32.20;;;;;;5066119;28;20485;-59
2023/03/20 00:17:51;;;;;;;5.40;2.80;;;10.70;32.50;;;;;;5064144;28;20457;-59
2023/03/20 00:20:18;;;;;;;5.50;2.97;;;10.70;32.30;;;;;;5056793;28;20950;-60
2023/03/20 00:22:45;;;;;;;5.53;3.10;;;10.60;32.50;;;;;;5061844;28;20457;-60
2023/03/20 00:25:14;;;;;;;5.63;2.93;;;10.60;32.60;;;;;;5060617;28;20485;-60
2023/03/20 00:27:42;;;;;;;7.20;3.13;;;10.60;32.50;;;;;;5055767;28;20458;-59
2023/03/20 00:30:25;;;;;;;4.90;2.63;;;10.60;32.80;;;;;;5060529;28;20980;-59
2023/03/20 00:32:53;;;;;;;5.87;2.90;;;10.50;32.90;;;;;;5060524;28;20822;-59
2023/03/20 00:35:23;;;;;;;8.37;2.73;;;10.50;33.00;;;;;;5063324;28;20485;-59
2023/03/20 00:37:50;;;;;;;5.67;2.60;;;10.50;33.30;;;;;;5058729;28;20467;-59
2023/03/20 00:40:18;;;;;;;5.30;3.00;;;10.50;33.30;;;;;;5057998;28;20470;-59
2023/03/20 00:42:46;;;;;;;6.73;3.07;;;10.50;33.20;;;;;;5061624;28;20467;-59
2023/03/20 00:45:17;;;;;;;6.10;3.27;;;10.50;33.30;;;;;;5064975;28;20480;-59
2023/03/20 00:47:44;;;;;;;10.23;3.10;;;10.40;33.30;;;;;;5061468;28;20465;-59
2023/03/20 00:50:17;;;;;;;6.20;3.33;;;10.40;33.10;;;;;;5063139;28;20825;-59
2023/03/20 00:52:44;;;;;;;5.50;2.80;;;10.30;33.30;;;;;;5066307;28;20453;-59
2023/03/20 00:55:11;;;;;;;6.83;3.50;;;10.30;33.30;;;;;;5060864;28;20489;-59
2023/03/20 00:57:43;;;;;;;5.80;3.23;;;10.30;33.30;;;;;;5062065;28;20469;-59
2023/03/20 01:00:27;;;;;;;6.53;2.70;;;10.20;33.40;;;;;;5062175;28;20507;-59
2023/03/20 01:02:57;;;;;;;7.83;2.87;;;10.20;33.50;;;;;;5057829;28;20496;-59
2023/03/20 01:05:27;;;;;;;7.43;3.30;;;10.10;33.50;;;;;;5062529;28;20454;-59
2023/03/20 01:07:55;;;;;;;5.50;2.93;;;10.00;33.60;;;;;;5065828;28;20446;-59
2023/03/20 01:10:22;;;;;;;6.67;3.90;;;10.00;33.70;;;;;;5064172;28;20446;-59
2023/03/20 01:12:49;;;;;;;5.70;3.03;;;9.90;33.90;;;;;;5061206;28;20559;-59
2023/03/20 01:15:19;;;;;;;6.30;3.10;;;9.90;33.90;;;;;;5063625;28;20466;-59
2023/03/20 01:17:47;;;;;;;6.93;3.63;;;9.80;33.90;;;;;;5062862;28;21019;-59
2023/03/20 01:20:20;;;;;;;6.67;3.80;;;9.80;33.90;;;;;;5060873;28;20476;-59
2023/03/20 01:22:48;;;;;;;7.70;4.00;;;9.70;34.20;;;;;;5063848;28;21059;-58
2023/03/20 01:25:16;;;;;;;8.67;3.47;;;9.70;34.20;;;;;;5062468;28;20860;-59
2023/03/20 01:27:44;;;;;;;5.73;3.33;;;9.60;34.20;;;;;;5059177;28;20847;-59
2023/03/20 01:30:22;;;;;;;7.43;3.80;;;9.60;34.40;;;;;;5058506;28;20836;-58
2023/03/20 01:32:49;;;;;;;7.60;3.60;;;9.50;34.80;;;;;;5065836;28;20461;-59
2023/03/20 01:35:19;;;;;;;6.17;3.63;;;9.50;34.90;;;;;;5058502;28;20457;-58
2023/03/20 01:37:49;;;;;;;7.47;3.90;;;9.40;35.00;;;;;;5063549;28;20457;-59
2023/03/20 01:40:26;;;;;;;6.73;3.97;;;9.30;35.00;;;;;;5059868;28;20485;-59
2023/03/20 01:42:53;;;;;;;7.33;4.27;;;9.30;35.10;;;;;;5064945;28;20461;-60
2023/03/20 01:45:23;;;;;;;7.47;4.20;;;9.20;35.40;;;;;;5060663;28;20461;-60
2023/03/20 01:47:51;;;;;;;6.70;4.40;;;9.20;35.70;;;;;;5062051;28;20462;-60
2023/03/20 01:50:35;;;;;;;6.50;3.93;;;9.20;35.90;;;;;;5060426;28;20893;-59
2023/03/20 01:53:11;;;;;;;6.60;3.90;;;9.10;36.50;;;;;;5058998;28;20835;-59
2023/03/20 01:55:41;;;;;;;7.20;4.60;;;9.10;36.80;;;;;;5060343;28;20457;-59
2023/03/20 01:58:11;;;;;;;8.30;5.10;;;9.10;37.20;;;;;;5058290;28;20476;-59
2023/03/20 02:00:38;;;;;;;9.10;5.83;;;9.10;37.50;;;;;;5057734;28;20465;-59
2023/03/20 02:03:07;;;;;;;6.87;4.60;;;9.10;37.70;;;;;;5061148;28;20464;-59
2023/03/20 02:05:35;;;;;;;7.07;4.13;;;9.10;37.80;;;;;;5063999;28;20457;-59
2023/03/20 02:08:23;;;;;;;8.60;4.87;;;9.00;37.90;;;;;;5064825;28;20449;-60
2023/03/20 02:10:50;;;;;;;6.50;4.07;;;9.00;38.20;;;;;;5061494;28;20462;-59
2023/03/20 02:13:17;;;;;;;7.03;4.70;;;9.00;38.30;;;;;;5063358;28;20480;-59
2023/03/20 02:15:56;;;;;;;8.53;4.90;;;9.00;38.00;;;;;;5069061;28;20484;-59
2023/03/20 02:18:24;;;;;;;7.40;4.60;;;9.00;38.30;;;;;;5069647;28;20456;-60
2023/03/20 02:21:22;;;;;;;8.83;4.80;;;9.00;38.50;;;;;;5065268;28;20453;-61
2023/03/20 02:24:07;;;;;;;6.93;4.40;;;8.90;38.80;;;;;;5060042;28;20857;-60
2023/03/20 02:26:46;;;;;;;7.20;4.60;;;8.90;39.00;;;;;;5063959;28;20965;-60
2023/03/20 02:30:00;;;;;;;9.40;4.87;;;8.90;38.80;;;;;;5064012;28;20560;-60
2023/03/20 02:33:27;;;;;;;7.57;5.10;;;8.90;39.10;;;;;;5062430;28;20473;-60
2023/03/20 02:36:40;;;;;;;8.33;5.00;;;8.90;39.20;;;;;;4996985;28;20479;-59
2023/03/20 02:39:19;;;;;;;7.47;4.93;;;8.90;39.10;;;;;;4999926;28;20496;-59
2023/03/20 02:41:53;;;;;;;8.47;4.87;;;8.90;39.00;;;;;;5054473;28;20547;-59
2023/03/20 02:44:25;;;;;;;7.60;4.60;;;8.90;39.30;;;;;;5068331;28;20495;-58
2023/03/20 02:47:00;;;;;;;8.60;5.80;;;9.00;39.10;;;;;;5060343;28;20460;-59
2023/03/20 02:49:44;;;;;;;8.40;5.70;;;9.00;39.10;;;;;;5066382;28;20500;-59
2023/03/20 02:52:18;;;;;;;7.47;4.60;;;9.00;39.30;;;;;;5063980;28;20462;-59
2023/03/20 02:54:54;;;;;;;8.73;6.00;;;9.00;39.20;;;;;;5065012;28;20508;-59
2023/03/20 02:57:29;;;;;;;7.60;5.03;;;9.00;39.10;;;;;;5066678;28;20496;-60
2023/03/20 02:59:59;;;;;;;8.50;5.33;;;9.00;38.70;;;;;;5061162;28;20463;-59
2023/03/20 03:02:33;;;;;;;8.43;5.40;;;8.90;38.60;;;;;;5057606;28;20477;-59
2023/03/20 03:05:03;;;;;;;9.60;6.20;;;8.80;38.60;;;;;;5064109;28;20566;-59
2023/03/20 03:07:33;;;;;;;9.30;5.60;;;8.80;38.50;;;;;;5066229;28;20483;-60
2023/03/20 03:10:05;;;;;;;10.90;5.90;;;8.80;38.60;;;;;;5061320;28;20458;-60
2023/03/20 03:12:36;;;;;;;8.13;5.57;;;8.70;38.80;;;;;;5059766;28;20453;-59
2023/03/20 03:15:07;;;;;;;10.07;6.23;;;8.70;39.00;;;;;;5060589;28;20577;-59
2023/03/20 03:17:36;;;;;;;9.60;6.60;;;8.70;39.10;;;;;;5066584;28;20851;-60
2023/03/20 03:20:08;;;;;;;9.13;6.23;;;8.70;39.00;;;;;;5064595;28;20466;-61
2023/03/20 03:22:36;;;;;;;9.00;6.47;;;8.70;39.00;;;;;;5066640;28;21055;-59
2023/03/20 03:25:05;;;;;;;8.90;6.40;;;8.60;39.00;;;;;;5063057;28;21131;-59
2023/03/20 03:27:36;;;;;;;10.67;7.13;;;8.60;39.20;;;;;;5064515;28;21017;-60
2023/03/20 03:30:07;;;;;;;11.47;6.70;;;8.60;39.40;;;;;;5068183;28;20449;-60
2023/03/20 03:32:36;;;;;;;12.43;7.33;;;8.70;39.40;;;;;;5058947;28;20830;-60
2023/03/20 03:35:06;;;;;;;10.63;7.60;;;8.70;39.60;;;;;;5067836;28;20481;-59
2023/03/20 03:37:42;;;;;;;11.47;7.97;;;8.60;39.50;;;;;;5066202;28;20469;-59
2023/03/20 03:40:21;;;;;;;10.90;7.93;;;8.60;39.80;;;;;;5060992;28;20488;-60
2023/03/20 03:42:55;;;;;;;10.83;7.57;;;8.70;40.00;;;;;;5066742;28;20453;-59
2023/03/20 03:45:29;;;;;;;11.90;9.20;;;8.70;40.10;;;;;;5061817;28;20458;-60
2023/03/20 03:48:01;;;;;;;12.53;8.43;;;8.70;40.20;;;;;;5061170;28;20540;-60
2023/03/20 03:50:30;;;;;;;13.00;9.37;;;8.80;40.10;;;;;;5065912;28;20973;-59
2023/03/20 03:53:01;;;;;;;14.90;8.90;;;8.80;40.30;;;;;;5060346;28;20466;-60
2023/03/20 03:55:35;;;;;;;11.27;7.87;;;8.90;40.20;;;;;;5063666;28;20458;-60
2023/03/20 03:58:06;;;;;;;13.13;10.00;;;8.90;40.20;;;;;;5062037;28;20485;-59
2023/03/20 04:00:34;;;;;;;11.30;8.13;;;8.90;40.20;;;;;;5060629;28;20485;-60
2023/03/20 04:03:00;;;;;;;11.97;8.80;;;9.00;40.10;;;;;;5058907;28;20451;-59
2023/03/20 04:05:32;;;;;;;13.90;9.13;;;9.00;40.20;;;;;;5065559;28;20992;-59
2023/03/20 04:08:01;;;;;;;11.30;8.73;;;9.00;40.20;;;;;;5060453;28;20571;-59
2023/03/20 04:10:29;;;;;;;13.33;9.30;;;9.10;40.00;;;;;;5059475;28;20471;-59
2023/03/20 04:12:56;;;;;;;12.37;8.83;;;9.10;39.90;;;;;;5067384;28;20461;-59
2023/03/20 04:15:22;;;;;;;12.07;9.37;;;9.20;39.70;;;;;;5068546;28;20454;-60
2023/03/20 04:17:49;;;;;;;11.60;8.40;;;9.20;39.50;;;;;;5062277;28;20481;-60
2023/03/20 04:20:16;;;;;;;11.67;8.50;;;9.20;39.50;;;;;;5059441;28;20459;-59
2023/03/20 04:22:43;;;;;;;11.63;8.53;;;9.20;39.40;;;;;;5059904;28;20454;-61
2023/03/20 04:25:16;;;;;;;12.40;9.10;;;9.30;39.30;;;;;;5060569;28;20490;-60
2023/03/20 04:27:44;;;;;;;11.90;8.40;;;9.30;39.50;;;;;;5059154;28;20486;-59
2023/03/20 04:30:12;;;;;;;11.00;7.90;;;9.30;39.50;;;;;;5062110;28;20464;-59
2023/03/20 04:32:39;;;;;;;13.33;7.80;;;9.30;39.30;;;;;;5058209;28;20973;-59
2023/03/20 04:35:06;;;;;;;13.47;8.37;;;9.30;39.20;;;;;;5059560;28;20482;-59
2023/03/20 04:37:33;;;;;;;11.07;8.07;;;9.30;39.10;;;;;;5054014;28;20488;-60
2023/03/20 04:40:00;;;;;;;10.37;7.80;;;9.30;39.10;;;;;;5062233;28;20465;-59
2023/03/20 04:42:27;;;;;;;10.77;7.27;;;9.40;38.90;;;;;;5065283;28;20882;-60
2023/03/20 04:44:55;;;;;;;13.10;8.10;;;9.40;39.00;;;;;;5065860;28;20514;-59
2023/03/20 04:47:21;;;;;;;13.07;7.13;;;9.40;38.80;;;;;;5064997;28;20476;-59
2023/03/20 04:49:48;;;;;;;11.90;7.97;;;9.40;38.60;;;;;;5061585;28;20465;-74
2023/03/20 04:52:15;;;;;;;11.53;8.10;;;9.40;38.60;;;;;;5059585;28;20458;-58
2023/03/20 04:54:41;;;;;;;9.93;7.10;;;9.40;38.50;;;;;;5064635;28;20473;-59
2023/03/20 04:57:08;;;;;;;10.50;7.50;;;9.50;38.70;;;;;;5055887;28;20469;-60
2023/03/20 04:59:35;;;;;;;9.73;7.53;;;9.50;38.60;;;;;;5058034;28;20468;-60
2023/03/20 05:02:03;;;;;;;10.90;8.10;;;9.50;38.50;;;;;;5052243;28;20489;-60
2023/03/20 05:04:30;;;;;;;11.33;7.20;;;9.50;38.30;;;;;;5064337;28;20489;-61
2023/03/20 05:06:57;;;;;;;12.13;7.80;;;9.50;38.30;;;;;;5054708;28;20450;-62
2023/03/20 05:09:24;;;;;;;11.93;6.97;;;9.50;38.20;;;;;;5059577;28;20947;-61
2023/03/20 05:11:50;;;;;;;9.30;6.43;;;9.50;38.20;;;;;;5057703;28;20453;-61
2023/03/20 05:14:17;;;;;;;9.00;6.43;;;9.50;38.30;;;;;;5059193;28;20480;-60
2023/03/20 05:16:44;;;;;;;9.50;6.90;;;9.50;38.80;;;;;;5061750;28;20482;-62
2023/03/20 05:19:12;;;;;;;9.47;7.00;;;9.50;38.30;;;;;;5058940;28;20458;-61
2023/03/20 05:21:39;;;;;;;10.30;7.30;;;9.50;38.10;;;;;;5055528;28;20460;-62
2023/03/20 05:24:06;;;;;;;9.83;6.80;;;9.50;38.10;;;;;;5057368;28;20477;-61
2023/03/20 05:26:33;;;;;;;9.70;6.70;;;9.50;38.00;;;;;;5059905;28;20472;-61
2023/03/20 05:28:59;;;;;;;10.57;7.20;;;9.50;38.00;;;;;;5058541;28;20464;-62
2023/03/20 05:31:26;;;;;;;8.37;5.80;;;9.50;38.00;;;;;;5063816;28;20495;-61
2023/03/20 05:33:53;;;;;;;9.33;6.30;;;9.50;38.00;;;;;;5064704;28;20480;-61
2023/03/20 05:36:21;;;;;;;9.93;5.60;;;9.50;37.80;;;;;;5062868;28;20457;-60
2023/03/20 05:38:48;;;;;;;9.30;6.17;;;9.50;37.80;;;;;;5062098;28;20493;-59
2023/03/20 05:41:15;;;;;;;10.77;6.80;;;9.60;37.50;;;;;;5063991;28;20884;-60
2023/03/20 05:43:42;;;;;;;9.73;6.03;;;9.50;37.50;;;;;;5062423;28;20488;-58
2023/03/20 05:46:08;;;;;;;9.70;5.50;;;9.50;37.50;;;;;;5057630;28;20462;-59
2023/03/20 05:48:35;;;;;;;8.60;5.20;;;9.60;37.30;;;;;;5069550;28;20829;-58
2023/03/20 05:51:02;;;;;;;10.07;5.93;;;9.60;37.00;;;;;;5058314;28;20544;-59
2023/03/20 05:53:30;;;;;;;8.03;4.80;;;9.60;36.90;;;;;;5058635;28;20481;-59
2023/03/20 05:55:57;;;;;;;8.20;4.40;;;9.60;36.90;;;;;;5064288;28;20467;-59
2023/03/20 05:58:24;;;;;;;7.20;4.40;;;9.60;36.80;;;;;;5065797;28;21287;-59
2023/03/20 06:00:50;;;;;;;6.73;4.03;;;9.70;36.80;;;;;;5063352;28;20546;-61
2023/03/20 06:03:17;;;;;;;6.80;4.00;;;9.70;36.70;;;;;;5064232;28;20528;-60
2023/03/20 06:05:45;;;;;;;7.20;3.80;;;9.70;36.50;;;;;;5059469;28;20462;-60
2023/03/20 06:08:12;;;;;;;7.07;4.10;;;9.80;36.40;;;;;;5053677;28;20456;-61
2023/03/20 06:10:40;;;;;;;7.30;4.63;;;9.80;36.30;;;;;;5054356;28;20457;-66
2023/03/20 06:13:07;;;;;;;6.70;4.47;;;9.80;36.10;;;;;;5055867;28;20465;-62
2023/03/20 06:15:34;;;;;;;7.90;4.90;;;9.90;36.20;;;;;;5056081;28;20457;-62
2023/03/20 06:18:01;;;;;;;8.40;4.40;;;9.90;36.00;;;;;;5061290;28;20488;-62
2023/03/20 06:20:27;;;;;;;6.57;4.17;;;10.00;35.70;;;;;;5060376;28;20844;-62
2023/03/20 06:22:54;;;;;;;7.97;5.13;;;10.00;35.80;;;;;;5065618;28;20465;-61
2023/03/20 06:25:21;;;;;;;7.60;4.97;;;10.00;35.70;;;;;;5050954;28;20737;-61
2023/03/20 06:27:49;;;;;;;8.00;5.40;;;10.10;35.60;;;;;;5054213;28;20487;-62
2023/03/20 06:30:17;;;;;;;9.97;4.60;;;10.10;35.50;;;;;;5052857;28;20469;-62
2023/03/20 06:32:44;;;;;;;9.90;5.33;;;10.20;35.50;;;;;;5064415;28;20457;-60
2023/03/20 06:35:12;;;;;;;8.47;4.90;;;10.20;35.50;;;;;;5065404;28;20559;-62
2023/03/20 06:37:39;;;;;;;9.23;5.00;;;10.30;35.20;;;;;;5059945;28;20487;-60
2023/03/20 06:40:07;;;;;;;8.00;5.50;;;10.40;35.00;;;;;;5059354;28;20468;-61
2023/03/20 06:42:34;;;;;;;7.83;5.40;;;10.50;34.70;;;;;;5044042;28;21016;-62
2023/03/20 06:45:02;;;;;;;8.60;5.50;;;10.60;34.30;;;;;;5055024;28;21008;-61
2023/03/20 06:47:29;;;;;;;10.00;5.93;;;10.80;34.20;;;;;;5057158;28;20461;-62
2023/03/20 06:49:56;;;;;;;8.20;4.80;;;11.00;33.60;;;;;;5063225;28;20473;-62
2023/03/20 06:52:24;;;;;;;8.00;4.83;;;11.30;33.40;;;;;;5060056;28;20457;-61
2023/03/20 06:54:50;;;;;;;7.13;3.83;;;11.50;31.90;;;;;;5067954;28;20469;-62
2023/03/20 06:57:18;;;;;;;8.50;4.80;;;11.90;30.80;;;;;;5065737;28;20965;-62
2023/03/20 06:59:45;;;;;;;7.40;4.60;;;12.00;29.80;;;;;;5063737;28;21155;-61
2023/03/20 07:02:13;;;;;;;7.33;4.37;;;12.10;29.30;;;;;;5056572;28;20469;-61
2023/03/20 07:04:39;;;;;;;10.80;4.40;;;12.10;29.00;;;;;;5058864;28;20478;-61
2023/03/20 07:07:06;;;;;;;6.70;4.20;;;12.00;28.50;;;;;;5065164;28;20516;-62
2023/03/20 07:09:33;;;;;;;8.10;5.33;;;11.90;28.70;;;;;;5061222;28;20472;-61
2023/03/20 07:12:01;;;;;;;11.00;5.30;;;11.80;28.70;;;;;;5049067;28;20472;-60
2023/03/20 07:14:27;;;;;;;8.23;4.80;;;11.70;29.10;;;;;;5051231;28;20482;-62
2023/03/20 07:16:55;;;;;;;6.87;4.43;;;11.60;28.90;;;;;;5058732;28;20482;-59
2023/03/20 07:19:24;;;;;;;9.60;4.00;;;11.60;29.00;;;;;;5060487;28;21112;-59
2023/03/20 07:21:57;;;;;;;7.70;4.37;;;11.50;29.30;;;;;;5063195;28;20461;-58
2023/03/20 07:24:24;;;;;;;8.00;4.87;;;11.50;29.40;;;;;;5062576;28;20492;-63
2023/03/20 07:26:50;;;;;;;6.20;4.03;;;11.40;29.30;;;;;;5055485;28;20466;-58
2023/03/20 07:29:17;;;;;;;6.77;4.23;;;11.40;29.40;;;;;;5056265;28;20454;-59
2023/03/20 07:31:44;;;;;;;7.30;4.40;;;11.40;29.40;;;;;;5058601;28;20481;-60
2023/03/20 07:34:12;;;;;;;7.60;3.93;;;11.40;29.30;;;;;;5059169;28;20564;-61
2023/03/20 07:36:41;;;;;;;7.23;3.47;;;11.50;29.30;;;;;;5063551;28;20468;-61
2023/03/20 07:39:08;;;;;;;7.20;3.50;;;11.50;29.10;;;;;;5056952;28;20474;-67
2023/03/20 07:41:35;;;;;;;6.60;3.57;;;11.50;29.10;;;;;;5061312;28;20462;-61
2023/03/20 07:44:02;;;;;;;7.63;3.30;;;11.60;28.90;;;;;;5059574;28;20489;-61
2023/03/20 07:46:28;;;;;;;6.30;3.80;;;11.60;28.50;;;;;;5061101;28;21904;-60
2023/03/20 07:48:57;;;;;;;6.97;3.20;;;11.80;28.20;;;;;;5055627;28;20464;-60
2023/03/20 07:51:24;;;;;;;7.00;3.50;;;11.90;28.00;;;;;;5062923;28;20456;-61
2023/03/20 07:53:52;;;;;;;6.57;3.90;;;12.00;27.30;;;;;;5054139;28;20768;-60
2023/03/20 07:56:20;;;;;;;6.17;2.70;;;12.20;27.10;;;;;;5060612;28;20461;-60
2023/03/20 07:58:46;;;;;;;5.60;2.43;;;12.30;26.80;;;;;;5053881;28;20486;-60
2023/03/20 08:01:13;;;;;;;5.90;3.13;;;12.40;26.00;;;;;;5049106;28;20470;-60
2023/03/20 08:03:40;;;;;;;6.30;2.60;;;12.60;24.80;;;;;;5061595;28;20801;-60
2023/03/20 08:06:08;;;;;;;4.90;1.97;;;12.90;24.30;;;;;;5063168;28;20468;-60
2023/03/20 08:08:35;;;;;;;4.83;2.17;;;13.30;23.30;;;;;;5060369;28;20899;-62
2023/03/20 08:11:03;;;;;;;6.37;2.53;;;13.70;21.60;;;;;;5066108;28;20461;-61
2023/03/20 08:13:30;;;;;;;5.77;2.10;;;14.30;20.50;;;;;;5062004;28;20476;-61
2023/03/20 08:15:56;;;;;;;5.40;2.40;;;14.90;19.70;;;;;;5059071;28;20476;-61
2023/03/20 08:18:23;;;;;;;5.00;1.90;;;15.20;18.30;;;;;;5064683;28;21139;-61
2023/03/20 08:20:50;;;;;;;4.90;1.87;;;15.60;17.30;;;;;;5063004;28;20484;-61
2023/03/20 08:23:17;;;;;;;5.50;2.23;;;16.00;15.90;;;;;;5060957;28;20488;-62
2023/03/20 08:25:47;;;;;;;4.50;1.80;;;16.70;14.40;;;;;;5057668;28;21553;-61
2023/03/20 08:28:16;;;;;;;4.63;2.10;;;17.10;13.20;;;;;;5063999;28;20465;-60
2023/03/20 08:30:43;;;;;;;4.23;1.40;;;17.20;12.40;;;;;;5059656;28;20918;-61
2023/03/20 08:33:10;;;;;;;4.73;1.50;;;17.30;11.60;;;;;;5060323;28;20464;-61
2023/03/20 08:35:37;;;;;;;5.13;2.10;;;17.40;11.60;;;;;;5057996;28;20457;-61
2023/03/20 08:38:04;;;;;;;5.60;1.87;;;17.50;11.20;;;;;;5060267;28;20490;-63
2023/03/20 08:40:32;;;;;;;4.33;1.47;;;17.40;11.80;;;;;;5060923;28;20462;-63
2023/03/20 08:42:59;;;;;;;3.87;1.20;;;17.30;12.00;;;;;;5063913;28;20468;-61
2023/03/20 08:45:27;;;;;;;4.20;1.60;;;17.30;12.20;;;;;;5064746;28;21034;-62
2023/03/20 08:47:55;;;;;;;6.90;1.73;;;17.40;11.40;;;;;;5055166;28;20516;-61
2023/03/20 08:50:22;;;;;;;5.10;2.27;;;17.50;10.70;;;;;;5063506;28;20596;-62
2023/03/20 08:52:49;;;;;;;4.10;1.80;;;17.70;10.30;;;;;;5057736;28;20957;-62
2023/03/20 08:55:16;;;;;;;4.60;2.27;;;17.80;10.20;;;;;;5055193;28;20497;-63
2023/03/20 08:57:43;;;;;;;5.20;2.60;;;17.90;10.10;;;;;;5066019;28;20472;-59
2023/03/20 09:00:13;;;;;;;4.23;1.80;;;17.90;10.00;;;;;;5059128;28;20460;-58
2023/03/20 09:02:41;;;;;;;4.30;1.87;;;17.80;10.10;;;;;;5061327;28;20846;-59
2023/03/20 09:05:09;;;;;;;4.53;2.07;;;17.80;10.40;;;;;;5059353;28;20493;-58
2023/03/20 09:07:36;;;;;;;4.40;2.07;;;17.90;10.10;;;;;;5049354;28;20949;-58
2023/03/20 09:10:03;;;;;;;4.93;2.03;;;18.10;9.90;;;;;;5059821;28;21000;-57
2023/03/20 09:12:31;;;;;;;4.40;1.60;;;18.40;10.00;;;;;;5061112;28;20469;-57
2023/03/20 09:14:58;;;;;;;4.10;1.73;;;18.70;8.80;;;;;;5057150;28;20476;-57
2023/03/20 09:17:25;;;;;;;4.90;2.10;;;18.90;8.70;;;;;;5051835;28;20457;-58
2023/03/20 09:19:53;;;;;;;4.53;2.03;;;18.90;7.70;;;;;;5065090;28;20485;-59
2023/03/20 09:22:20;;;;;;;4.40;2.00;;;18.80;7.60;;;;;;5049437;28;20700;-60
2023/03/20 09:24:47;;;;;;;4.53;1.63;;;18.80;8.00;;;;;;5062759;28;20493;-60
2023/03/20 09:27:14;;;;;;;4.50;1.83;;;19.80;6.70;;;;;;5062572;28;20484;-60
2023/03/20 09:29:40;;;;;;;4.20;1.80;;;20.50;5.30;;;;;;5061365;28;20559;-60
2023/03/20 09:32:09;;;;;;;5.10;1.70;;;20.30;4.50;;;;;;5064572;28;20476;-60
2023/03/20 09:34:36;;;;;;;5.00;1.83;;;19.70;5.40;;;;;;5062280;28;20481;-60
2023/03/20 09:37:05;;;;;;;3.97;1.30;;;19.60;5.70;;;;;;5065536;28;20809;-60
2023/03/20 09:39:32;;;;;;;3.90;1.37;;;19.40;6.00;;;;;;5060414;28;20484;-60
2023/03/20 09:42:07;;;;;;;4.03;1.47;;;19.30;6.30;;;;;;5062059;28;20456;-60
2023/03/20 09:44:46;;;;;;;3.73;1.40;;;19.20;6.40;;;;;;5065125;28;20483;-59
2023/03/20 09:47:20;;;;;;;3.80;1.10;;;19.00;6.90;;;;;;5059658;28;20828;-60
2023/03/20 09:49:59;;;;;;;4.37;1.50;;;18.70;6.80;;;;;;5058325;28;20480;-61
2023/03/20 09:52:32;;;;;;;4.07;1.47;;;18.60;7.60;;;;;;5058783;28;20461;-59
2023/03/20 09:55:03;;;;;;;4.17;1.50;;;18.30;7.40;;;;;;5055790;28;20496;-59
2023/03/20 09:57:37;;;;;;;4.83;1.30;;;18.10;8.00;;;;;;5062703;28;20480;-59
2023/03/20 10:00:12;;;;;;;5.00;1.50;;;17.80;8.50;;;;;;5059621;28;20477;-60
2023/03/20 10:02:46;;;;;;;3.80;1.10;;;17.60;8.90;;;;;;5061016;28;20468;-59
2023/03/20 10:05:21;;;;;;;3.60;1.13;;;17.50;8.90;;;;;;5060106;28;20481;-60
2023/03/20 10:07:49;;;;;;;4.10;1.30;;;17.40;9.10;;;;;;5053795;28;20457;-59
2023/03/20 10:10:19;;;;;;;3.93;1.50;;;18.60;9.90;;;;;;5058146;28;20954;-60
2023/03/20 10:13:08;;;;;;;4.00;1.30;;;19.90;6.50;;;;;;5057746;28;20896;-60
2023/03/20 10:15:45;;;;;;;4.40;1.60;;;19.60;5.80;;;;;;5059426;28;20457;-60
2023/03/20 10:18:22;;;;;;;4.43;1.00;;;19.10;5.90;;;;;;5065177;28;20808;-59
2023/03/20 10:20:55;;;;;;;4.00;1.30;;;18.50;6.80;;;;;;5065367;28;20539;-60
2023/03/20 10:23:32;;;;;;;3.77;1.40;;;18.00;8.10;;;;;;5068393;28;20524;-59
2023/03/20 10:26:03;;;;;;;7.00;1.53;;;17.50;8.80;;;;;;5071947;28;20464;-59
2023/03/20 10:28:35;;;;;;;4.30;1.63;;;17.20;9.50;;;;;;5067150;28;20481;-59
2023/03/20 10:31:16;;;;;;;4.40;1.40;;;16.90;10.20;;;;;;5064934;28;20473;-58
2023/03/20 10:33:54;;;;;;;4.73;1.60;;;16.60;11.00;;;;;;5067844;28;20587;-59
2023/03/20 10:36:42;;;;;;;4.03;1.63;;;16.40;11.50;;;;;;5071364;28;20456;-58
2023/03/20 10:39:19;;;;;;;6.90;2.17;;;16.20;11.70;;;;;;5067035;28;20489;-58
2023/03/20 10:41:53;;;;;;;6.73;2.13;;;15.90;12.40;;;;;;5069430;28;20465;-58
2023/03/20 10:44:27;;;;;;;4.70;2.20;;;15.80;13.10;;;;;;5070751;28;20996;-58
2023/03/20 10:46:57;;;;;;;4.80;1.90;;;15.70;13.20;;;;;;5064683;28;20464;-57
2023/03/20 10:49:32;;;;;;;5.03;1.90;;;15.60;13.60;;;;;;5065461;28;20461;-57
2023/03/20 10:52:03;;;;;;;4.43;1.93;;;15.60;14.10;;;;;;5065580;28;20640;-57
2023/03/20 10:54:33;;;;;;;4.50;1.50;;;15.70;13.90;;;;;;5063686;28;20484;-58
2023/03/20 10:57:03;;;;;;;5.17;1.70;;;15.80;13.90;;;;;;5059313;28;20462;-58
2023/03/20 10:59:34;;;;;;;4.63;1.60;;;15.80;13.80;;;;;;5055975;28;20483;-58
2023/03/20 11:02:01;;;;;;;4.90;2.07;;;15.70;13.50;;;;;;5064695;28;20488;-60
2023/03/20 11:04:28;;;;;;;4.53;1.83;;;15.60;13.70;;;;;;5065512;28;20488;-60
2023/03/20 11:07:01;;;;;;;4.43;1.80;;;15.50;13.80;;;;;;5073642;22;20568;-60
2023/03/20 11:09:30;;;;;;;6.83;1.70;;;15.40;14.50;;;;;;5064523;28;20457;-61
2023/03/20 11:11:59;;;;;;;4.07;1.53;;;15.30;14.10;;;;;;5061446;28;20458;-59
2023/03/20 11:14:31;;;;;;;3.60;0.90;;;15.20;13.80;;;;;;5060514;28;20468;-60
2023/03/20 11:17:02;;;;;;;4.57;0.90;;;15.10;14.00;;;;;;5060906;28;20480;-61
2023/03/20 11:19:33;;;;;;;4.80;1.20;;;15.20;13.50;;;;;;5061843;28;20478;-64
2023/03/20 11:22:08;;;;;;;4.90;1.60;;;15.20;13.70;;;;;;5063291;28;20463;-62
2023/03/20 11:24:39;;;;;;;4.10;1.37;;;15.20;13.20;;;;;;5072070;28;20453;-63
2023/03/20 11:27:09;;;;;;;4.80;1.60;;;15.20;13.30;;;;;;5080363;28;20507;-59
2023/03/20 11:29:37;;;;;;;3.80;1.00;;;15.20;13.80;;;;;;5079364;28;21312;-59
2023/03/20 11:32:07;;;;;;;4.60;1.00;;;15.30;13.00;;;;;;5081533;28;20481;-59
2023/03/20 11:34:37;;;;;;;3.63;0.97;;;15.30;12.30;;;;;;5082034;28;20468;-62
2023/03/20 11:37:07;;;;;;;5.40;1.30;;;15.30;12.40;;;;;;5080800;28;20472;-60
2023/03/20 11:39:36;;;;;;;4.27;1.43;;;15.30;12.60;;;;;;5070056;28;20493;-62
2023/03/20 11:42:03;;;;;;;3.50;0.90;;;15.40;12.60;;;;;;5062836;28;20457;-60
2023/03/20 11:44:32;;;;;;;3.70;1.10;;;15.40;12.70;;;;;;5062189;28;20492;-59
2023/03/20 11:47:02;;;;;;;3.70;0.90;;;15.40;12.80;;;;;;5065986;28;20484;-61
2023/03/20 11:49:30;;;;;;;3.33;0.73;;;15.30;12.90;;;;;;5066363;28;20449;-59
2023/03/20 11:52:01;;;;;;;3.73;0.90;;;15.30;12.20;;;;;;5058549;28;20465;-59
2023/03/20 11:54:29;;;;;;;4.00;1.40;;;15.30;12.00;;;;;;5062541;28;20465;-60
2023/03/20 11:56:58;;;;;;;3.70;1.10;;;15.20;12.40;;;;;;5059878;28;20484;-62
2023/03/20 11:59:29;;;;;;;3.70;1.20;;;15.10;12.40;;;;;;5070613;28;20473;-61
2023/03/20 12:01:58;;;;;;;3.60;1.17;;;15.10;12.20;;;;;;5062133;28;20476;-61
2023/03/20 12:04:30;;;;;;;3.60;0.87;;;15.00;12.30;;;;;;5058449;28;20458;-60
2023/03/20 12:07:01;;;;;;;3.60;1.00;;;15.00;13.10;;;;;;5064777;28;20587;-60
2023/03/20 12:09:39;;;;;;;3.60;0.80;;;15.10;13.60;;;;;;5056981;28;20988;-62
2023/03/20 12:12:16;;;;;;;4.07;1.00;;;15.10;13.50;;;;;;5064339;28;20457;-61
2023/03/20 12:14:52;;;;;;;3.30;0.70;;;15.20;13.50;;;;;;5057831;28;20462;-62
2023/03/20 12:17:38;;;;;;;3.57;0.80;;;15.20;13.50;;;;;;5061338;28;20488;-62
2023/03/20 12:20:14;;;;;;;4.27;0.87;;;15.30;12.70;;;;;;5059795;28;20478;-63
2023/03/20 12:22:50;;;;;;;3.90;1.00;;;15.20;12.40;;;;;;5056185;28;20457;-64
2023/03/20 12:25:23;;;;;;;3.60;0.90;;;15.20;12.10;;;;;;5059151;28;20457;-63
2023/03/20 12:27:56;;;;;;;3.93;0.93;;;15.10;12.50;;;;;;5061196;28;20480;-63
2023/03/20 12:30:31;;;;;;;4.43;0.80;;;15.00;12.30;;;;;;5053749;28;20485;-64
2023/03/20 12:33:06;;;;;;;3.97;0.97;;;14.90;12.40;;;;;;5066328;28;20461;-64
2023/03/20 12:35:37;;;;;;;4.33;1.10;;;14.90;12.50;;;;;;5059867;28;20457;-63
2023/03/20 12:38:10;;;;;;;3.70;1.10;;;14.80;12.30;;;;;;5060283;28;20466;-64
2023/03/20 12:40:42;;;;;;;3.87;0.73;;;14.80;12.40;;;;;;5060840;28;21059;-64
2023/03/20 12:43:15;;;;;;;4.47;0.90;;;14.80;12.50;;;;;;5060552;28;20816;-62
2023/03/20 12:45:49;;;;;;;4.13;1.13;;;14.80;12.60;;;;;;5058851;28;20461;-62
2023/03/20 12:48:55;;;;;;;4.20;1.00;;;14.80;12.50;;;;;;5060733;28;20465;-64
2023/03/20 12:51:27;;;;;;;4.70;1.03;;;14.90;12.90;;;;;;4982351;28;20464;-62
2023/03/20 12:54:10;;;;;;;3.60;0.90;;;14.90;12.70;;;;;;4978201;28;20461;-62
2023/03/20 12:56:51;;;;;;;3.80;1.00;;;15.00;12.30;;;;;;5024824;28;20482;-64
2023/03/20 12:59:23;;;;;;;4.67;0.90;;;15.00;12.20;;;;;;5063435;28;20497;-65
2023/03/20 13:01:53;;;;;;;4.47;1.20;;;15.00;12.00;;;;;;5059706;28;20488;-64
2023/03/20 13:04:45;;;;;;;3.80;1.00;;;14.90;11.90;;;;;;5058666;28;20522;-65
2023/03/20 13:07:18;;;;;;;3.70;0.97;;;14.90;11.90;;;;;;5056051;28;20546;-66